Goudeau, Louisiana
Current Conditions -  °F | °C
As of 4:35 PM on Thursday 20 Nov 2014 (Local Time) from KOPL Reporting Station
Scattered Clouds Scattered Clouds  
Wind Chill: 66°   Ceiling: Unl
Heat Index: 66°   Visibility: 10mi
Dew Point: 50°   Wind: 7mph
Humidity: 56%   Direction: 190°S
Pressure: 30.15"   Gusts: NA
Location:  30.9447°N, 92.1075°W
Report Text: KOPL 202235Z AUTO 19006KT 10SM SCT047 19/10 A3015 RMK AO2 T01900100
Loading
Personal Weather Stations






























Interactive Weather Map New forecast layout! Learn more

10-Day Weather Forecast

Advertisements
Track Severe Weather on mobile